createdAt,value
2022-08-24T00:02:12.309Z,4.32
2022-08-24T00:04:58.129Z,4.68
2022-08-24T00:07:43.794Z,4.57
2022-08-24T00:10:29.266Z,4.25
2022-08-24T00:13:15.631Z,4.45
2022-08-24T00:16:01.450Z,4.35
2022-08-24T00:18:48.189Z,4.53
2022-08-24T00:21:33.642Z,4.20
2022-08-24T00:24:19.767Z,4.60
2022-08-24T00:27:07.511Z,4.07
2022-08-24T00:29:53.283Z,3.80
2022-08-24T00:32:38.366Z,3.97
2022-08-24T00:35:24.568Z,4.18
2022-08-24T00:38:10.243Z,3.95
2022-08-24T00:40:55.449Z,3.58
2022-08-24T00:43:55.822Z,4.00
2022-08-24T00:46:49.622Z,3.35
2022-08-24T00:50:07.133Z,2.90
2022-08-24T00:53:06.294Z,2.58
2022-08-24T00:55:57.387Z,2.33
2022-08-24T00:58:47.682Z,2.65
2022-08-24T01:01:44.264Z,2.33
2022-08-24T01:04:40.179Z,2.75
2022-08-24T01:07:27.481Z,2.10
2022-08-24T01:10:17.414Z,2.20
2022-08-24T01:13:07.149Z,2.60
2022-08-24T01:15:57.949Z,2.15
2022-08-24T01:18:49.768Z,2.47
2022-08-24T01:21:44.850Z,2.25
2022-08-24T01:24:30.106Z,2.03
2022-08-24T01:27:16.770Z,1.77
2022-08-24T01:30:08.950Z,1.75
2022-08-24T01:33:01.929Z,1.92
2022-08-24T01:35:47.654Z,1.85
2022-08-24T01:38:34.309Z,1.80
2022-08-24T01:41:19.583Z,2.00
2022-08-24T01:44:05.818Z,1.90
2022-08-24T01:46:53.998Z,3.10
2022-08-24T01:49:42.906Z,1.70
2022-08-24T01:52:43.374Z,1.95
2022-08-24T01:55:34.534Z,1.90
2022-08-24T01:58:19.994Z,1.88
2022-08-24T02:01:05.902Z,1.77
2022-08-24T02:03:52.112Z,1.63
2022-08-24T02:06:39.023Z,1.85
2022-08-24T02:09:25.709Z,1.95
2022-08-24T02:12:18.122Z,2.35
2022-08-24T02:15:06.209Z,1.70
2022-08-24T02:17:51.450Z,2.00
2022-08-24T02:20:37.790Z,2.05
2022-08-24T02:23:23.425Z,2.45
2022-08-24T02:26:10.564Z,2.13
2022-08-24T02:28:56.182Z,2.40
2022-08-24T02:31:45.024Z,2.60
2022-08-24T02:34:30.299Z,3.05
2022-08-24T02:37:15.826Z,3.10
2022-08-24T02:40:01.946Z,2.72
2022-08-24T02:42:48.136Z,2.63
2022-08-24T02:45:38.636Z,2.92
2022-08-24T02:48:23.758Z,3.15
2022-08-24T02:51:17.834Z,3.25
2022-08-24T02:54:05.590Z,4.22
2022-08-24T02:56:52.709Z,3.33
2022-08-24T02:59:37.896Z,3.70
2022-08-24T03:02:23.382Z,3.70
2022-08-24T03:05:10.234Z,4.40
2022-08-24T03:07:56.493Z,4.00
2022-08-24T03:10:41.887Z,3.67
2022-08-24T03:13:28.649Z,3.47
2022-08-24T03:16:14.014Z,3.67
2022-08-24T03:18:59.779Z,3.50
2022-08-24T03:21:45.020Z,3.70
2022-08-24T03:24:30.586Z,3.67
2022-08-24T03:27:16.123Z,3.40
2022-08-24T03:30:01.983Z,3.53
2022-08-24T03:32:47.160Z,4.28
2022-08-24T03:35:32.827Z,3.28
2022-08-24T03:38:18.355Z,3.80
2022-08-24T03:41:03.977Z,3.88
2022-08-24T03:43:50.018Z,4.35
2022-08-24T03:46:37.831Z,4.50
2022-08-24T03:49:23.753Z,5.00
2022-08-24T03:52:08.988Z,5.07
2022-08-24T03:54:54.535Z,5.20
2022-08-24T03:57:40.274Z,4.65
2022-08-24T04:00:25.420Z,4.90
2022-08-24T04:03:12.255Z,5.38
2022-08-24T04:05:58.421Z,5.10
2022-08-24T04:08:46.534Z,5.70
2022-08-24T04:11:35.851Z,5.60
2022-08-24T04:14:27.403Z,5.32
2022-08-24T04:17:13.345Z,5.55
2022-08-24T04:19:59.013Z,4.85
2022-08-24T04:22:44.745Z,4.57
2022-08-24T04:25:32.391Z,5.03
2022-08-24T04:28:20.168Z,4.68
2022-08-24T04:31:06.948Z,4.45
2022-08-24T04:33:53.996Z,5.15
2022-08-24T04:36:41.323Z,4.00
2022-08-24T04:39:26.867Z,3.88
2022-08-24T04:42:12.395Z,3.65
2022-08-24T04:44:58.033Z,4.03
2022-08-24T04:47:45.109Z,3.75
2022-08-24T04:50:30.339Z,3.97
2022-08-24T04:53:16.713Z,4.00
2022-08-24T04:56:03.062Z,4.03
2022-08-24T04:58:48.584Z,4.28
2022-08-24T05:01:34.242Z,4.30
2022-08-24T05:04:20.091Z,3.63
2022-08-24T05:07:06.349Z,4.22
2022-08-24T05:09:52.339Z,3.80
2022-08-24T05:12:38.384Z,3.60
2022-08-24T05:15:23.758Z,3.53
2022-08-24T05:18:09.244Z,3.33
2022-08-24T05:20:54.762Z,3.10
2022-08-24T05:23:42.831Z,3.47
2022-08-24T05:26:31.081Z,3.92
2022-08-24T05:29:16.599Z,3.63
2022-08-24T05:32:02.381Z,4.00
2022-08-24T05:34:50.244Z,3.67
2022-08-24T05:37:40.008Z,4.00
2022-08-24T05:40:25.822Z,3.78
2022-08-24T05:43:18.693Z,3.65
2022-08-24T05:46:04.405Z,3.40
2022-08-24T05:48:52.813Z,3.75
2022-08-24T05:51:40.178Z,3.78
2022-08-24T05:54:26.927Z,3.35
2022-08-24T05:57:12.790Z,3.65
2022-08-24T05:59:58.427Z,3.95
2022-08-24T06:02:44.475Z,3.45
2022-08-24T06:05:30.411Z,3.25
2022-08-24T06:08:15.815Z,3.88
2022-08-24T06:11:02.621Z,3.38
2022-08-24T06:13:48.871Z,3.60
2022-08-24T06:16:46.235Z,3.55
2022-08-24T06:19:32.911Z,4.10
2022-08-24T06:22:18.092Z,3.58
2022-08-24T06:25:22.800Z,3.47
2022-08-24T06:28:08.352Z,3.53
2022-08-24T06:31:03.236Z,3.10
2022-08-24T06:33:48.801Z,4.40
2022-08-24T06:36:34.396Z,3.30
2022-08-24T06:39:19.701Z,2.90
2022-08-24T06:42:06.353Z,2.40
2022-08-24T06:44:52.916Z,3.13
2022-08-24T06:47:38.372Z,3.00
2022-08-24T06:50:24.776Z,2.45
2022-08-24T06:53:14.730Z,2.83
2022-08-24T06:55:59.867Z,3.15
2022-08-24T06:58:45.614Z,2.58
2022-08-24T07:01:31.163Z,2.53
2022-08-24T07:04:16.636Z,2.20
2022-08-24T07:07:02.114Z,2.65
2022-08-24T07:09:47.497Z,3.03
2022-08-24T07:12:33.354Z,2.20
2022-08-24T07:15:19.390Z,2.78
2022-08-24T07:18:10.008Z,2.15
2022-08-24T07:20:55.967Z,2.30
2022-08-24T07:23:42.853Z,2.13
2022-08-24T07:26:30.204Z,2.22
2022-08-24T07:29:43.722Z,2.22
2022-08-24T07:32:21.093Z,2.30
2022-08-24T07:35:07.700Z,2.10
2022-08-24T07:37:53.835Z,1.80
2022-08-24T07:41:05.128Z,2.60
2022-08-24T07:43:46.846Z,2.30
2022-08-24T07:46:32.812Z,2.30
2022-08-24T07:49:33.226Z,2.35
2022-08-24T07:52:22.369Z,2.30
2022-08-24T07:55:08.717Z,2.00
2022-08-24T07:57:54.036Z,1.90
2022-08-24T08:00:39.155Z,2.08
2022-08-24T08:03:29.282Z,2.42
2022-08-24T08:06:16.237Z,2.25
2022-08-24T08:09:02.977Z,1.90
2022-08-24T08:11:49.329Z,2.28
2022-08-24T08:14:35.759Z,2.40
2022-08-24T08:17:21.381Z,2.10
2022-08-24T08:20:08.981Z,2.30
2022-08-24T08:23:12.771Z,2.55
2022-08-24T08:25:59.422Z,2.53
2022-08-24T08:28:45.032Z,2.10
2022-08-24T08:31:30.493Z,2.42
2022-08-24T08:34:20.402Z,2.35
2022-08-24T08:37:06.693Z,2.05
2022-08-24T08:39:52.163Z,2.20
2022-08-24T08:42:59.213Z,2.10
2022-08-24T08:46:07.826Z,2.13
2022-08-24T08:49:22.688Z,2.13
2022-08-24T08:52:42.528Z,1.73
2022-08-24T08:55:33.271Z,1.90
2022-08-24T08:58:44.053Z,1.85
2022-08-24T09:01:57.228Z,1.30
2022-08-24T09:05:02.521Z,2.00
2022-08-24T09:08:01.011Z,1.25
2022-08-24T09:11:09.694Z,1.40
2022-08-24T09:14:22.676Z,1.70
2022-08-24T09:17:23.564Z,1.48
2022-08-24T09:20:27.565Z,1.73
2022-08-24T09:23:30.483Z,1.50
2022-08-24T09:26:33.320Z,1.73
2022-08-24T09:29:37.627Z,2.10
2022-08-24T09:32:35.532Z,1.60
2022-08-24T09:38:58.889Z,1.60
2022-08-24T09:42:14.923Z,1.48
2022-08-24T09:45:26.564Z,2.15
2022-08-24T09:48:53.389Z,1.33
2022-08-24T09:51:51.127Z,1.40
2022-08-24T09:55:04.899Z,0.93
2022-08-24T09:58:20.848Z,1.30
2022-08-24T10:01:09.177Z,1.25
2022-08-24T10:04:11.424Z,1.30
2022-08-24T10:07:23.759Z,1.45
2022-08-24T10:10:37.511Z,1.17
2022-08-24T10:13:51.899Z,1.23
2022-08-24T10:16:44.649Z,1.25
2022-08-24T10:19:54.089Z,1.08
2022-08-24T10:22:49.318Z,1.08
2022-08-24T10:25:52.707Z,1.23
2022-08-24T10:28:59.943Z,1.30
2022-08-24T10:32:03.991Z,1.10
2022-08-24T10:35:08.134Z,1.38
2022-08-24T10:38:38.260Z,1.25
2022-08-24T10:41:44.577Z,1.80
2022-08-24T10:44:48.686Z,1.20
2022-08-24T10:47:36.787Z,1.15
2022-08-24T10:50:38.601Z,1.15
2022-08-24T10:53:30.232Z,1.10
2022-08-24T10:56:19.087Z,1.13
2022-08-24T10:59:16.622Z,1.40
2022-08-24T11:02:02.301Z,1.17
2022-08-24T11:05:06.216Z,1.85
2022-08-24T11:08:05.697Z,1.70
2022-08-24T11:11:08.891Z,1.38
2022-08-24T11:14:00.809Z,1.40
2022-08-24T11:16:47.518Z,1.45
2022-08-24T11:19:35.193Z,1.30
2022-08-24T11:22:30.370Z,1.35
2022-08-24T11:25:23.211Z,1.42
2022-08-24T11:28:23.453Z,1.67
2022-08-24T11:31:19.571Z,1.92
2022-08-24T11:34:09.346Z,2.00
2022-08-24T11:36:54.950Z,1.55
2022-08-24T11:39:40.489Z,1.65
2022-08-24T11:42:29.220Z,1.20
2022-08-24T11:45:34.284Z,1.25
2022-08-24T11:48:54.177Z,1.80
2022-08-24T11:51:54.848Z,1.30
2022-08-24T11:54:52.738Z,1.77
2022-08-24T11:57:48.070Z,1.40
2022-08-24T12:00:43.198Z,1.45
2022-08-24T12:03:34.639Z,2.08
2022-08-24T12:06:43.033Z,1.60
2022-08-24T12:09:57.812Z,1.10
2022-08-24T12:12:54.463Z,1.13
2022-08-24T12:15:44.721Z,1.33
2022-08-24T12:18:51.562Z,1.55
2022-08-24T12:21:40.701Z,1.40
2022-08-24T12:24:35.119Z,1.48
2022-08-24T12:27:32.150Z,1.50
2022-08-24T12:30:17.872Z,1.40
2022-08-24T12:33:13.032Z,1.20
2022-08-24T12:36:04.396Z,1.40
2022-08-24T12:39:01.182Z,1.48
2022-08-24T12:42:04.618Z,1.63
2022-08-24T12:45:00.620Z,1.10
2022-08-24T12:48:05.190Z,1.00
2022-08-24T12:51:09.566Z,1.20
2022-08-24T12:54:18.830Z,1.13
2022-08-24T12:57:25.238Z,1.27
2022-08-24T13:00:21.668Z,1.80
2022-08-24T13:03:22.547Z,1.33
2022-08-24T13:06:27.615Z,1.40
2022-08-24T13:09:35.491Z,1.90
2022-08-24T13:12:39.311Z,1.55
2022-08-24T13:15:30.700Z,1.20
2022-08-24T13:18:15.869Z,1.08
2022-08-24T13:21:01.459Z,1.30
2022-08-24T13:23:47.184Z,0.93
2022-08-24T13:26:32.615Z,0.75
2022-08-24T13:29:18.921Z,1.10
2022-08-24T13:32:06.800Z,1.33
2022-08-24T13:34:57.637Z,1.17
2022-08-24T13:37:44.140Z,1.10
2022-08-24T13:40:30.616Z,1.25
2022-08-24T13:43:32.576Z,1.05
2022-08-24T13:46:22.878Z,1.10
2022-08-24T13:49:15.093Z,1.08
2022-08-24T13:52:24.968Z,0.90
2022-08-24T13:55:53.915Z,0.90
2022-08-24T13:58:49.834Z,1.10
2022-08-24T14:01:48.313Z,0.85
2022-08-24T14:04:57.769Z,0.93
2022-08-24T14:08:08.017Z,0.85
2022-08-24T14:11:07.990Z,0.77
2022-08-24T14:14:32.251Z,1.00
2022-08-24T14:17:54.123Z,0.60
2022-08-24T14:21:01.769Z,1.27
2022-08-24T14:24:02.896Z,1.05
2022-08-24T14:27:00.251Z,0.60
2022-08-24T14:29:46.957Z,0.45
2022-08-24T14:32:36.132Z,0.90
2022-08-24T14:35:39.596Z,0.60
2022-08-24T14:38:41.928Z,0.60
2022-08-24T14:41:50.783Z,0.57
2022-08-24T14:45:07.459Z,1.00
2022-08-24T14:48:08.186Z,0.70
2022-08-24T14:51:41.931Z,0.70
2022-08-24T14:57:57.901Z,0.70
2022-08-24T15:01:07.772Z,0.55
2022-08-24T15:04:37.351Z,0.60
2022-08-24T15:07:31.179Z,0.52
2022-08-24T15:10:17.073Z,0.88
2022-08-24T15:13:33.984Z,0.52
2022-08-24T15:16:27.302Z,0.80
2022-08-24T15:19:27.174Z,0.57
2022-08-24T15:22:28.706Z,0.35
2022-08-24T15:25:26.402Z,0.60
2022-08-24T15:28:33.020Z,0.65
2022-08-24T15:31:25.973Z,0.60
2022-08-24T15:34:11.556Z,0.50
2022-08-24T15:37:01.703Z,0.40
2022-08-24T15:39:47.598Z,1.10
2022-08-24T15:42:36.033Z,0.70
2022-08-24T15:45:22.585Z,0.55
2022-08-24T15:48:11.621Z,0.75
2022-08-24T15:50:57.590Z,0.50
2022-08-24T15:53:43.164Z,0.80
2022-08-24T15:56:40.543Z,0.90
2022-08-24T15:59:49.668Z,0.73
2022-08-24T16:02:38.713Z,1.00
2022-08-24T16:05:25.351Z,0.73
2022-08-24T16:08:13.904Z,0.88
2022-08-24T16:11:19.666Z,0.50
2022-08-24T16:14:15.412Z,0.68
2022-08-24T16:17:39.930Z,0.75
2022-08-24T16:20:25.357Z,0.70
2022-08-24T16:23:21.280Z,1.05
2022-08-24T16:26:32.798Z,0.75
2022-08-24T16:29:37.009Z,0.60
2022-08-24T16:32:32.359Z,1.00
2022-08-24T16:35:27.055Z,0.73
2022-08-24T16:38:12.531Z,1.08
2022-08-24T16:41:06.003Z,0.85
2022-08-24T16:43:51.861Z,1.10
2022-08-24T16:46:39.307Z,0.82
2022-08-24T16:49:25.366Z,1.23
2022-08-24T16:52:11.643Z,0.95
2022-08-24T16:54:57.656Z,1.13
2022-08-24T16:57:43.933Z,0.80
2022-08-24T17:00:30.142Z,0.85
2022-08-24T17:03:15.362Z,0.88
2022-08-24T17:06:00.765Z,0.80
2022-08-24T17:08:47.597Z,0.90
2022-08-24T17:11:33.230Z,0.93
2022-08-24T17:14:19.625Z,0.70
2022-08-24T17:17:14.815Z,0.75
2022-08-24T17:20:09.766Z,0.60
2022-08-24T17:22:59.803Z,0.90
2022-08-24T17:25:45.460Z,0.90
2022-08-24T17:28:39.216Z,0.80
2022-08-24T17:31:25.500Z,0.82
2022-08-24T17:34:11.696Z,0.68
2022-08-24T17:36:58.158Z,1.00
2022-08-24T17:39:44.325Z,0.80
2022-08-24T17:45:36.371Z,0.70
2022-08-24T17:48:26.206Z,0.60
2022-08-24T17:51:15.842Z,0.47
2022-08-24T17:54:02.901Z,1.05
2022-08-24T17:56:56.718Z,1.38
2022-08-24T17:59:42.440Z,1.10
2022-08-24T18:02:28.799Z,0.93
2022-08-24T18:05:16.130Z,0.85
2022-08-24T18:08:03.116Z,0.80
2022-08-24T18:10:48.925Z,0.60
2022-08-24T18:13:34.487Z,0.63
2022-08-24T18:16:22.762Z,0.52
2022-08-24T18:19:11.937Z,0.80
2022-08-24T18:21:57.386Z,0.63
2022-08-24T18:24:44.635Z,0.93
2022-08-24T18:27:32.812Z,0.70
2022-08-24T18:30:23.071Z,0.60
2022-08-24T18:36:07.938Z,0.60
2022-08-24T18:38:53.919Z,0.85
2022-08-24T18:41:41.849Z,0.57
2022-08-24T18:44:31.652Z,0.70
2022-08-24T18:47:17.937Z,0.70
2022-08-24T18:50:08.335Z,0.50
2022-08-24T18:52:58.943Z,0.90
2022-08-24T18:55:47.282Z,0.73
2022-08-24T18:58:33.373Z,0.80
2022-08-24T19:01:19.422Z,0.90
2022-08-24T19:04:12.047Z,0.63
2022-08-24T19:06:59.637Z,0.73
2022-08-24T19:09:45.133Z,0.70
2022-08-24T19:12:33.776Z,0.68
2022-08-24T19:15:32.302Z,0.90
2022-08-24T19:18:26.143Z,0.90
2022-08-24T19:21:11.610Z,0.50
2022-08-24T19:23:58.526Z,0.82
2022-08-24T19:26:43.887Z,0.80
2022-08-24T19:29:54.588Z,1.55
2022-08-24T19:32:39.492Z,1.08
2022-08-24T19:35:25.188Z,0.93
2022-08-24T19:38:10.998Z,0.98
2022-08-24T19:40:58.150Z,1.52
2022-08-24T19:44:02.785Z,1.23
2022-08-24T19:46:48.395Z,1.00
2022-08-24T19:49:34.158Z,1.10
2022-08-24T19:52:20.412Z,1.10
2022-08-24T19:55:08.671Z,1.13
2022-08-24T19:58:03.317Z,1.00
2022-08-24T20:00:55.383Z,1.27
2022-08-24T20:03:41.331Z,1.30
2022-08-24T20:06:27.634Z,1.23
2022-08-24T20:09:13.658Z,1.33
2022-08-24T20:11:59.175Z,1.20
2022-08-24T20:14:44.922Z,1.10
2022-08-24T20:17:30.251Z,0.90
2022-08-24T20:20:18.039Z,1.00
2022-08-24T20:23:06.392Z,1.27
2022-08-24T20:25:52.214Z,1.08
2022-08-24T20:28:43.489Z,1.30
2022-08-24T20:31:29.673Z,1.40
2022-08-24T20:34:16.176Z,1.00
2022-08-24T20:37:01.862Z,1.05
2022-08-24T20:39:47.485Z,1.05
2022-08-24T20:42:33.103Z,1.30
2022-08-24T20:45:18.807Z,1.30
2022-08-24T20:48:05.589Z,1.08
2022-08-24T20:50:51.120Z,1.20
2022-08-24T20:53:37.037Z,1.30
2022-08-24T20:56:31.071Z,1.20
2022-08-24T20:59:18.928Z,1.20
2022-08-24T21:02:05.099Z,1.20
2022-08-24T21:04:50.694Z,1.80
2022-08-24T21:07:48.006Z,1.00
2022-08-24T21:10:34.893Z,1.33
2022-08-24T21:13:22.106Z,1.05
2022-08-24T21:16:11.152Z,1.50
2022-08-24T21:18:57.084Z,1.30
2022-08-24T21:21:42.938Z,1.17
2022-08-24T21:24:29.318Z,1.45
2022-08-24T21:27:14.998Z,1.50
2022-08-24T21:30:01.132Z,1.33
2022-08-24T21:33:05.680Z,1.30
2022-08-24T21:35:53.862Z,1.67
2022-08-24T21:38:40.759Z,1.67
2022-08-24T21:41:30.847Z,1.42
2022-08-24T21:44:16.967Z,1.50
2022-08-24T21:47:07.457Z,1.52
2022-08-24T21:49:52.928Z,1.90
2022-08-24T21:52:38.813Z,1.67
2022-08-24T21:55:26.710Z,1.40
2022-08-24T21:58:12.106Z,1.92
2022-08-24T22:00:58.993Z,1.33
2022-08-24T22:03:45.224Z,2.00
2022-08-24T22:06:31.996Z,1.63
2022-08-24T22:09:17.978Z,1.80
2022-08-24T22:12:03.590Z,1.65
2022-08-24T22:14:49.660Z,1.50
2022-08-24T22:17:35.847Z,2.00
2022-08-24T22:20:23.035Z,1.70
2022-08-24T22:23:08.919Z,1.73
2022-08-24T22:25:54.524Z,1.73
2022-08-24T22:28:41.446Z,1.85
2022-08-24T22:31:30.027Z,1.83
2022-08-24T22:34:19.577Z,1.73
2022-08-24T22:37:06.404Z,1.90
2022-08-24T22:39:52.012Z,1.75
2022-08-24T22:42:37.894Z,2.00
2022-08-24T22:45:23.819Z,1.77
2022-08-24T22:48:09.611Z,2.05
2022-08-24T22:50:55.528Z,1.75
2022-08-24T22:53:41.280Z,1.92
2022-08-24T22:56:33.283Z,2.15
2022-08-24T22:59:23.463Z,2.13
2022-08-24T23:02:12.893Z,1.98
2022-08-24T23:04:58.597Z,2.00
2022-08-24T23:07:44.074Z,2.30
2022-08-24T23:10:29.309Z,1.65
2022-08-24T23:13:14.856Z,2.00
2022-08-24T23:16:08.807Z,2.13
2022-08-24T23:19:15.255Z,1.75
2022-08-24T23:22:01.123Z,2.55
2022-08-24T23:24:47.990Z,1.88
2022-08-24T23:27:38.531Z,2.03
2022-08-24T23:30:24.253Z,1.90
2022-08-24T23:33:09.770Z,1.95
2022-08-24T23:35:55.239Z,1.85
2022-08-24T23:38:44.483Z,1.88
2022-08-24T23:41:35.045Z,2.05
2022-08-24T23:44:27.635Z,2.47
2022-08-24T23:47:13.226Z,2.05
2022-08-24T23:49:58.785Z,2.35
2022-08-24T23:52:44.784Z,2.40
2022-08-24T23:55:30.557Z,2.05
2022-08-24T23:58:16.117Z,2.30
